sensor_id;sensor_type;location;lat;lon;timestamp;P1;durP1;ratioP1;P2;durP2;ratioP2
4555;SDS011;2290;48.674;9.018;2022-09-17T00:00:17;2.07;;;1.00;;
4555;SDS011;2290;48.674;9.018;2022-09-17T00:02:43;1.00;;;0.90;;
4555;SDS011;2290;48.674;9.018;2022-09-17T00:05:11;1.30;;;1.00;;
4555;SDS011;2290;48.674;9.018;2022-09-17T00:07:37;1.43;;;1.20;;
4555;SDS011;2290;48.674;9.018;2022-09-17T00:10:04;1.30;;;0.90;;
4555;SDS011;2290;48.674;9.018;2022-09-17T00:12:30;1.40;;;1.00;;
4555;SDS011;2290;48.674;9.018;2022-09-17T00:14:56;2.17;;;1.13;;
4555;SDS011;2290;48.674;9.018;2022-09-17T00:17:21;1.30;;;0.90;;
4555;SDS011;2290;48.674;9.018;2022-09-17T00:19:47;1.07;;;0.97;;
4555;SDS011;2290;48.674;9.018;2022-09-17T00:22:13;1.07;;;0.97;;
4555;SDS011;2290;48.674;9.018;2022-09-17T00:24:39;1.47;;;1.07;;
4555;SDS011;2290;48.674;9.018;2022-09-17T00:27:05;1.10;;;0.90;;
4555;SDS011;2290;48.674;9.018;2022-09-17T00:29:31;4.33;;;1.17;;
4555;SDS011;2290;48.674;9.018;2022-09-17T00:31:57;1.40;;;1.00;;
4555;SDS011;2290;48.674;9.018;2022-09-17T00:34:23;1.10;;;1.00;;
4555;SDS011;2290;48.674;9.018;2022-09-17T00:36:49;1.47;;;1.30;;
4555;SDS011;2290;48.674;9.018;2022-09-17T00:39:14;1.10;;;1.00;;
4555;SDS011;2290;48.674;9.018;2022-09-17T00:41:40;1.20;;;1.00;;
4555;SDS011;2290;48.674;9.018;2022-09-17T00:47:07;1.67;;;1.20;;
4555;SDS011;2290;48.674;9.018;2022-09-17T00:49:57;2.60;;;1.13;;
4555;SDS011;2290;48.674;9.018;2022-09-17T00:52:35;2.40;;;1.30;;
4555;SDS011;2290;48.674;9.018;2022-09-17T00:55:11;1.83;;;1.43;;
4555;SDS011;2290;48.674;9.018;2022-09-17T00:57:50;1.17;;;1.07;;
4555;SDS011;2290;48.674;9.018;2022-09-17T01:00:19;1.50;;;1.20;;
4555;SDS011;2290;48.674;9.018;2022-09-17T01:02:46;1.43;;;1.10;;
4555;SDS011;2290;48.674;9.018;2022-09-17T01:05:12;1.47;;;1.10;;
4555;SDS011;2290;48.674;9.018;2022-09-17T01:10:49;1.30;;;1.10;;
4555;SDS011;2290;48.674;9.018;2022-09-17T01:16:27;1.90;;;1.20;;
4555;SDS011;2290;48.674;9.018;2022-09-17T01:19:01;1.20;;;1.10;;
4555;SDS011;2290;48.674;9.018;2022-09-17T01:27:55;1.30;;;1.20;;
4555;SDS011;2290;48.674;9.018;2022-09-17T01:33:48;1.10;;;1.00;;
4555;SDS011;2290;48.674;9.018;2022-09-17T01:36:31;1.30;;;1.10;;
4555;SDS011;2290;48.674;9.018;2022-09-17T01:39:27;1.37;;;1.27;;
4555;SDS011;2290;48.674;9.018;2022-09-17T01:44:35;1.60;;;1.43;;
4555;SDS011;2290;48.674;9.018;2022-09-17T01:47:26;1.33;;;1.17;;
4555;SDS011;2290;48.674;9.018;2022-09-17T01:49:59;1.90;;;1.33;;
4555;SDS011;2290;48.674;9.018;2022-09-17T01:52:31;1.50;;;1.30;;
4555;SDS011;2290;48.674;9.018;2022-09-17T01:55:00;2.23;;;1.50;;
4555;SDS011;2290;48.674;9.018;2022-09-17T01:57:37;1.50;;;1.30;;
4555;SDS011;2290;48.674;9.018;2022-09-17T02:00:23;1.50;;;1.40;;
4555;SDS011;2290;48.674;9.018;2022-09-17T02:05:27;1.83;;;1.23;;
4555;SDS011;2290;48.674;9.018;2022-09-17T02:08:22;2.23;;;1.30;;
4555;SDS011;2290;48.674;9.018;2022-09-17T02:10:58;1.50;;;1.23;;
4555;SDS011;2290;48.674;9.018;2022-09-17T02:13:40;1.60;;;1.37;;
4555;SDS011;2290;48.674;9.018;2022-09-17T02:16:21;2.17;;;1.10;;
4555;SDS011;2290;48.674;9.018;2022-09-17T02:19:14;2.73;;;1.37;;
4555;SDS011;2290;48.674;9.018;2022-09-17T02:22:04;1.90;;;1.10;;
4555;SDS011;2290;48.674;9.018;2022-09-17T02:24:44;4.10;;;1.37;;
4555;SDS011;2290;48.674;9.018;2022-09-17T02:27:55;1.40;;;1.20;;
4555;SDS011;2290;48.674;9.018;2022-09-17T02:30:11;3.40;;;1.10;;
4555;SDS011;2290;48.674;9.018;2022-09-17T02:32:37;1.63;;;1.40;;
4555;SDS011;2290;48.674;9.018;2022-09-17T02:35:04;8.50;;;1.30;;
4555;SDS011;2290;48.674;9.018;2022-09-17T02:37:31;1.50;;;1.30;;
4555;SDS011;2290;48.674;9.018;2022-09-17T02:39:57;1.20;;;1.10;;
4555;SDS011;2290;48.674;9.018;2022-09-17T02:59:46;4.47;;;1.40;;
4555;SDS011;2290;48.674;9.018;2022-09-17T03:02:24;1.50;;;1.27;;
4555;SDS011;2290;48.674;9.018;2022-09-17T03:04:54;1.23;;;1.13;;
4555;SDS011;2290;48.674;9.018;2022-09-17T03:07:21;1.30;;;1.10;;
4555;SDS011;2290;48.674;9.018;2022-09-17T03:09:47;1.10;;;1.00;;
4555;SDS011;2290;48.674;9.018;2022-09-17T03:12:13;1.30;;;1.20;;
4555;SDS011;2290;48.674;9.018;2022-09-17T03:14:39;3.17;;;1.40;;
4555;SDS011;2290;48.674;9.018;2022-09-17T03:17:04;4.03;;;1.23;;
4555;SDS011;2290;48.674;9.018;2022-09-17T03:19:30;4.43;;;1.17;;
4555;SDS011;2290;48.674;9.018;2022-09-17T03:21:57;1.20;;;1.00;;
4555;SDS011;2290;48.674;9.018;2022-09-17T03:24:23;1.30;;;1.20;;
4555;SDS011;2290;48.674;9.018;2022-09-17T03:26:49;1.57;;;1.10;;
4555;SDS011;2290;48.674;9.018;2022-09-17T03:29:16;3.93;;;1.20;;
4555;SDS011;2290;48.674;9.018;2022-09-17T03:31:42;1.40;;;1.30;;
4555;SDS011;2290;48.674;9.018;2022-09-17T03:34:07;3.33;;;1.17;;
4555;SDS011;2290;48.674;9.018;2022-09-17T03:36:33;1.97;;;1.40;;
4555;SDS011;2290;48.674;9.018;2022-09-17T03:38:59;1.50;;;1.30;;
4555;SDS011;2290;48.674;9.018;2022-09-17T03:41:25;2.60;;;1.23;;
4555;SDS011;2290;48.674;9.018;2022-09-17T03:43:51;3.97;;;1.27;;
4555;SDS011;2290;48.674;9.018;2022-09-17T03:46:17;1.30;;;1.20;;
4555;SDS011;2290;48.674;9.018;2022-09-17T03:48:44;1.30;;;1.20;;
4555;SDS011;2290;48.674;9.018;2022-09-17T03:51:10;1.50;;;1.37;;
4555;SDS011;2290;48.674;9.018;2022-09-17T03:53:37;3.20;;;1.33;;
4555;SDS011;2290;48.674;9.018;2022-09-17T03:56:04;1.83;;;1.30;;
4555;SDS011;2290;48.674;9.018;2022-09-17T03:58:31;1.20;;;1.00;;
4555;SDS011;2290;48.674;9.018;2022-09-17T04:00:57;3.33;;;1.17;;
4555;SDS011;2290;48.674;9.018;2022-09-17T04:03:23;2.70;;;1.30;;
4555;SDS011;2290;48.674;9.018;2022-09-17T04:05:50;1.53;;;1.20;;
4555;SDS011;2290;48.674;9.018;2022-09-17T04:08:15;1.90;;;1.30;;
4555;SDS011;2290;48.674;9.018;2022-09-17T04:10:42;6.70;;;1.30;;
4555;SDS011;2290;48.674;9.018;2022-09-17T04:13:08;2.70;;;1.57;;
4555;SDS011;2290;48.674;9.018;2022-09-17T04:15:34;2.00;;;1.37;;
4555;SDS011;2290;48.674;9.018;2022-09-17T04:17:59;5.70;;;1.23;;
4555;SDS011;2290;48.674;9.018;2022-09-17T04:20:25;2.07;;;1.30;;
4555;SDS011;2290;48.674;9.018;2022-09-17T04:22:51;1.40;;;1.20;;
4555;SDS011;2290;48.674;9.018;2022-09-17T04:25:17;3.33;;;1.37;;
4555;SDS011;2290;48.674;9.018;2022-09-17T04:27:43;12.83;;;1.53;;
4555;SDS011;2290;48.674;9.018;2022-09-17T04:30:09;1.27;;;1.17;;
4555;SDS011;2290;48.674;9.018;2022-09-17T04:32:36;1.30;;;1.10;;
4555;SDS011;2290;48.674;9.018;2022-09-17T04:35:02;3.30;;;1.57;;
4555;SDS011;2290;48.674;9.018;2022-09-17T04:37:28;1.83;;;1.10;;
4555;SDS011;2290;48.674;9.018;2022-09-17T04:39:54;1.60;;;1.23;;
4555;SDS011;2290;48.674;9.018;2022-09-17T04:42:21;1.50;;;1.30;;
4555;SDS011;2290;48.674;9.018;2022-09-17T04:44:47;5.20;;;1.60;;
4555;SDS011;2290;48.674;9.018;2022-09-17T04:47:12;2.63;;;1.60;;
4555;SDS011;2290;48.674;9.018;2022-09-17T04:49:38;1.93;;;1.10;;
4555;SDS011;2290;48.674;9.018;2022-09-17T04:52:04;2.20;;;1.23;;
4555;SDS011;2290;48.674;9.018;2022-09-17T04:54:30;2.70;;;1.47;;
4555;SDS011;2290;48.674;9.018;2022-09-17T04:56:55;3.23;;;1.30;;
4555;SDS011;2290;48.674;9.018;2022-09-17T04:59:21;2.03;;;1.33;;
4555;SDS011;2290;48.674;9.018;2022-09-17T05:01:47;7.50;;;1.93;;
4555;SDS011;2290;48.674;9.018;2022-09-17T05:04:13;3.87;;;1.43;;
4555;SDS011;2290;48.674;9.018;2022-09-17T05:06:39;1.87;;;1.50;;
4555;SDS011;2290;48.674;9.018;2022-09-17T05:09:05;2.03;;;1.20;;
4555;SDS011;2290;48.674;9.018;2022-09-17T05:11:30;1.60;;;1.50;;
4555;SDS011;2290;48.674;9.018;2022-09-17T05:13:56;1.37;;;1.27;;
4555;SDS011;2290;48.674;9.018;2022-09-17T05:16:22;3.40;;;1.33;;
4555;SDS011;2290;48.674;9.018;2022-09-17T05:18:47;3.17;;;1.43;;
4555;SDS011;2290;48.674;9.018;2022-09-17T05:21:15;1.97;;;1.30;;
4555;SDS011;2290;48.674;9.018;2022-09-17T05:23:41;3.43;;;1.47;;
4555;SDS011;2290;48.674;9.018;2022-09-17T05:26:07;1.30;;;1.20;;
4555;SDS011;2290;48.674;9.018;2022-09-17T05:28:32;3.00;;;1.53;;
4555;SDS011;2290;48.674;9.018;2022-09-17T05:30:58;1.50;;;1.30;;
4555;SDS011;2290;48.674;9.018;2022-09-17T05:33:25;2.50;;;1.40;;
4555;SDS011;2290;48.674;9.018;2022-09-17T05:35:51;3.20;;;1.50;;
4555;SDS011;2290;48.674;9.018;2022-09-17T05:38:17;1.37;;;1.27;;
4555;SDS011;2290;48.674;9.018;2022-09-17T05:40:43;1.60;;;1.47;;
4555;SDS011;2290;48.674;9.018;2022-09-17T05:43:09;3.00;;;1.70;;
4555;SDS011;2290;48.674;9.018;2022-09-17T05:45:36;2.97;;;1.63;;
4555;SDS011;2290;48.674;9.018;2022-09-17T05:48:03;3.27;;;1.60;;
4555;SDS011;2290;48.674;9.018;2022-09-17T05:50:30;1.90;;;1.70;;
4555;SDS011;2290;48.674;9.018;2022-09-17T05:53:01;2.47;;;1.70;;
4555;SDS011;2290;48.674;9.018;2022-09-17T05:55:31;1.50;;;1.40;;
4555;SDS011;2290;48.674;9.018;2022-09-17T05:57:57;1.50;;;1.40;;
4555;SDS011;2290;48.674;9.018;2022-09-17T06:00:25;4.17;;;1.70;;
4555;SDS011;2290;48.674;9.018;2022-09-17T06:02:53;4.70;;;1.47;;
4555;SDS011;2290;48.674;9.018;2022-09-17T06:05:23;1.73;;;1.63;;
4555;SDS011;2290;48.674;9.018;2022-09-17T06:07:49;3.10;;;1.57;;
4555;SDS011;2290;48.674;9.018;2022-09-17T06:10:15;1.80;;;1.70;;
4555;SDS011;2290;48.674;9.018;2022-09-17T06:12:41;2.37;;;1.53;;
4555;SDS011;2290;48.674;9.018;2022-09-17T06:15:06;2.13;;;1.73;;
4555;SDS011;2290;48.674;9.018;2022-09-17T06:17:33;1.70;;;1.53;;
4555;SDS011;2290;48.674;9.018;2022-09-17T06:19:59;3.13;;;1.80;;
4555;SDS011;2290;48.674;9.018;2022-09-17T06:22:27;9.60;;;2.40;;
4555;SDS011;2290;48.674;9.018;2022-09-17T06:24:52;2.10;;;1.60;;
4555;SDS011;2290;48.674;9.018;2022-09-17T06:27:18;2.70;;;1.60;;
4555;SDS011;2290;48.674;9.018;2022-09-17T06:29:45;4.97;;;1.67;;
4555;SDS011;2290;48.674;9.018;2022-09-17T06:32:11;2.17;;;1.80;;
4555;SDS011;2290;48.674;9.018;2022-09-17T06:34:39;3.70;;;1.57;;
4555;SDS011;2290;48.674;9.018;2022-09-17T06:37:05;3.13;;;1.53;;
4555;SDS011;2290;48.674;9.018;2022-09-17T06:39:31;2.70;;;1.67;;
4555;SDS011;2290;48.674;9.018;2022-09-17T06:41:58;3.10;;;1.70;;
4555;SDS011;2290;48.674;9.018;2022-09-17T06:44:24;1.97;;;1.47;;
4555;SDS011;2290;48.674;9.018;2022-09-17T06:46:49;1.97;;;1.30;;
4555;SDS011;2290;48.674;9.018;2022-09-17T06:49:15;3.93;;;1.87;;
4555;SDS011;2290;48.674;9.018;2022-09-17T06:51:43;5.20;;;2.00;;
4555;SDS011;2290;48.674;9.018;2022-09-17T06:54:09;1.60;;;1.40;;
4555;SDS011;2290;48.674;9.018;2022-09-17T06:56:35;2.13;;;1.50;;
4555;SDS011;2290;48.674;9.018;2022-09-17T06:59:02;2.40;;;1.77;;
4555;SDS011;2290;48.674;9.018;2022-09-17T07:01:29;3.73;;;1.70;;
4555;SDS011;2290;48.674;9.018;2022-09-17T07:03:56;3.20;;;1.63;;
4555;SDS011;2290;48.674;9.018;2022-09-17T07:06:22;1.60;;;1.50;;
4555;SDS011;2290;48.674;9.018;2022-09-17T07:08:48;4.20;;;1.60;;
4555;SDS011;2290;48.674;9.018;2022-09-17T07:11:13;1.73;;;1.57;;
4555;SDS011;2290;48.674;9.018;2022-09-17T07:13:40;3.50;;;1.53;;
4555;SDS011;2290;48.674;9.018;2022-09-17T07:16:06;2.23;;;1.50;;
4555;SDS011;2290;48.674;9.018;2022-09-17T07:18:32;2.23;;;1.43;;
4555;SDS011;2290;48.674;9.018;2022-09-17T07:20:58;1.80;;;1.60;;
4555;SDS011;2290;48.674;9.018;2022-09-17T07:23:27;5.47;;;1.97;;
4555;SDS011;2290;48.674;9.018;2022-09-17T07:25:54;1.80;;;1.60;;
4555;SDS011;2290;48.674;9.018;2022-09-17T07:28:24;1.50;;;1.40;;
4555;SDS011;2290;48.674;9.018;2022-09-17T07:30:51;2.00;;;1.63;;
4555;SDS011;2290;48.674;9.018;2022-09-17T07:33:18;2.50;;;1.53;;
4555;SDS011;2290;48.674;9.018;2022-09-17T07:35:57;1.50;;;1.13;;
4555;SDS011;2290;48.674;9.018;2022-09-17T07:38:27;1.50;;;1.40;;
4555;SDS011;2290;48.674;9.018;2022-09-17T07:40:54;1.60;;;1.50;;
4555;SDS011;2290;48.674;9.018;2022-09-17T07:43:22;1.87;;;1.40;;
4555;SDS011;2290;48.674;9.018;2022-09-17T07:45:49;2.53;;;1.80;;
4555;SDS011;2290;48.674;9.018;2022-09-17T07:48:14;2.30;;;1.80;;
4555;SDS011;2290;48.674;9.018;2022-09-17T07:50:40;5.10;;;1.70;;
4555;SDS011;2290;48.674;9.018;2022-09-17T07:53:05;2.13;;;1.60;;
4555;SDS011;2290;48.674;9.018;2022-09-17T07:55:31;2.50;;;1.40;;
4555;SDS011;2290;48.674;9.018;2022-09-17T07:57:56;1.50;;;1.40;;
4555;SDS011;2290;48.674;9.018;2022-09-17T08:00:22;2.17;;;1.53;;
4555;SDS011;2290;48.674;9.018;2022-09-17T08:02:54;3.33;;;1.53;;
4555;SDS011;2290;48.674;9.018;2022-09-17T08:05:20;2.20;;;1.80;;
4555;SDS011;2290;48.674;9.018;2022-09-17T08:07:50;3.37;;;1.60;;
4555;SDS011;2290;48.674;9.018;2022-09-17T08:10:16;3.93;;;1.73;;
4555;SDS011;2290;48.674;9.018;2022-09-17T08:12:47;4.33;;;1.70;;
4555;SDS011;2290;48.674;9.018;2022-09-17T08:15:13;2.00;;;1.67;;
4555;SDS011;2290;48.674;9.018;2022-09-17T08:17:43;4.00;;;1.60;;
4555;SDS011;2290;48.674;9.018;2022-09-17T08:20:09;4.60;;;1.87;;
4555;SDS011;2290;48.674;9.018;2022-09-17T08:22:36;2.17;;;1.53;;
4555;SDS011;2290;48.674;9.018;2022-09-17T08:25:02;3.77;;;1.80;;
4555;SDS011;2290;48.674;9.018;2022-09-17T08:27:29;2.83;;;1.50;;
4555;SDS011;2290;48.674;9.018;2022-09-17T08:29:56;6.50;;;2.00;;
4555;SDS011;2290;48.674;9.018;2022-09-17T08:32:22;3.10;;;1.80;;
4555;SDS011;2290;48.674;9.018;2022-09-17T08:34:48;2.30;;;1.60;;
4555;SDS011;2290;48.674;9.018;2022-09-17T08:37:13;4.97;;;1.43;;
4555;SDS011;2290;48.674;9.018;2022-09-17T08:39:39;2.27;;;1.80;;
4555;SDS011;2290;48.674;9.018;2022-09-17T08:44:38;3.60;;;1.60;;
4555;SDS011;2290;48.674;9.018;2022-09-17T08:47:18;6.97;;;1.83;;
4555;SDS011;2290;48.674;9.018;2022-09-17T08:49:53;1.30;;;1.20;;
4555;SDS011;2290;48.674;9.018;2022-09-17T09:00:56;4.83;;;1.90;;
4555;SDS011;2290;48.674;9.018;2022-09-17T09:06:10;6.37;;;1.80;;
4555;SDS011;2290;48.674;9.018;2022-09-17T09:08:41;3.10;;;1.87;;
4555;SDS011;2290;48.674;9.018;2022-09-17T09:11:20;7.53;;;2.10;;
4555;SDS011;2290;48.674;9.018;2022-09-17T09:13:56;5.40;;;1.70;;
4555;SDS011;2290;48.674;9.018;2022-09-17T09:16:33;2.70;;;1.93;;
4555;SDS011;2290;48.674;9.018;2022-09-17T09:19:27;3.77;;;1.57;;
4555;SDS011;2290;48.674;9.018;2022-09-17T09:22:04;7.37;;;2.10;;
4555;SDS011;2290;48.674;9.018;2022-09-17T09:24:36;3.37;;;1.80;;
4555;SDS011;2290;48.674;9.018;2022-09-17T09:27:18;2.00;;;1.47;;
4555;SDS011;2290;48.674;9.018;2022-09-17T09:29:56;7.67;;;1.93;;
4555;SDS011;2290;48.674;9.018;2022-09-17T09:35:02;2.10;;;1.47;;
4555;SDS011;2290;48.674;9.018;2022-09-17T09:37:41;8.30;;;1.70;;
4555;SDS011;2290;48.674;9.018;2022-09-17T09:40:21;1.20;;;1.10;;
4555;SDS011;2290;48.674;9.018;2022-09-17T09:43:00;3.70;;;1.47;;
4555;SDS011;2290;48.674;9.018;2022-09-17T09:51:21;3.20;;;1.57;;
4555;SDS011;2290;48.674;9.018;2022-09-17T09:54:08;6.00;;;1.90;;
4555;SDS011;2290;48.674;9.018;2022-09-17T09:56:59;1.80;;;1.53;;
4555;SDS011;2290;48.674;9.018;2022-09-17T09:59:31;1.50;;;1.40;;
4555;SDS011;2290;48.674;9.018;2022-09-17T10:01:57;2.00;;;1.73;;
4555;SDS011;2290;48.674;9.018;2022-09-17T10:04:23;4.73;;;2.23;;
4555;SDS011;2290;48.674;9.018;2022-09-17T10:06:51;2.30;;;1.80;;
4555;SDS011;2290;48.674;9.018;2022-09-17T10:09:18;3.93;;;1.70;;
4555;SDS011;2290;48.674;9.018;2022-09-17T10:14:30;5.90;;;1.80;;
4555;SDS011;2290;48.674;9.018;2022-09-17T10:22:33;6.10;;;1.73;;
4555;SDS011;2290;48.674;9.018;2022-09-17T10:25:01;2.90;;;1.53;;
4555;SDS011;2290;48.674;9.018;2022-09-17T10:27:29;1.90;;;1.47;;
4555;SDS011;2290;48.674;9.018;2022-09-17T10:30:13;3.23;;;1.40;;
4555;SDS011;2290;48.674;9.018;2022-09-17T10:32:41;2.37;;;1.40;;
4555;SDS011;2290;48.674;9.018;2022-09-17T10:37:43;2.13;;;1.67;;
4555;SDS011;2290;48.674;9.018;2022-09-17T10:42:46;1.80;;;1.60;;
4555;SDS011;2290;48.674;9.018;2022-09-17T10:45:26;2.93;;;1.67;;
4555;SDS011;2290;48.674;9.018;2022-09-17T10:47:54;2.57;;;1.63;;
4555;SDS011;2290;48.674;9.018;2022-09-17T10:50:27;1.57;;;1.20;;
4555;SDS011;2290;48.674;9.018;2022-09-17T10:52:59;1.93;;;1.40;;
4555;SDS011;2290;48.674;9.018;2022-09-17T10:55:37;3.87;;;1.50;;
4555;SDS011;2290;48.674;9.018;2022-09-17T11:01:06;2.30;;;1.20;;
4555;SDS011;2290;48.674;9.018;2022-09-17T11:20:28;1.20;;;1.10;;
4555;SDS011;2290;48.674;9.018;2022-09-17T11:25:54;4.33;;;1.30;;
4555;SDS011;2290;48.674;9.018;2022-09-17T11:34:28;1.53;;;1.10;;
4555;SDS011;2290;48.674;9.018;2022-09-17T11:37:15;2.53;;;1.10;;
4555;SDS011;2290;48.674;9.018;2022-09-17T11:42:31;5.93;;;1.33;;
4555;SDS011;2290;48.674;9.018;2022-09-17T11:45:17;1.50;;;1.10;;
4555;SDS011;2290;48.674;9.018;2022-09-17T11:48:04;2.97;;;1.13;;
4555;SDS011;2290;48.674;9.018;2022-09-17T11:50:44;2.47;;;1.10;;
4555;SDS011;2290;48.674;9.018;2022-09-17T11:53:38;1.10;;;0.97;;
4555;SDS011;2290;48.674;9.018;2022-09-17T11:56:20;1.10;;;1.00;;
4555;SDS011;2290;48.674;9.018;2022-09-17T11:58:59;2.33;;;1.17;;
4555;SDS011;2290;48.674;9.018;2022-09-17T12:04:27;1.50;;;1.37;;
4555;SDS011;2290;48.674;9.018;2022-09-17T12:07:18;2.77;;;1.07;;
4555;SDS011;2290;48.674;9.018;2022-09-17T12:09:59;1.10;;;1.00;;
4555;SDS011;2290;48.674;9.018;2022-09-17T12:12:33;2.90;;;1.20;;
4555;SDS011;2290;48.674;9.018;2022-09-17T12:15:17;3.93;;;1.43;;
4555;SDS011;2290;48.674;9.018;2022-09-17T12:17:54;1.93;;;1.10;;
4555;SDS011;2290;48.674;9.018;2022-09-17T12:20:31;2.23;;;1.03;;
4555;SDS011;2290;48.674;9.018;2022-09-17T12:23:01;1.70;;;1.07;;
4555;SDS011;2290;48.674;9.018;2022-09-17T12:25:33;1.97;;;1.00;;
4555;SDS011;2290;48.674;9.018;2022-09-17T12:28:20;3.87;;;1.50;;
4555;SDS011;2290;48.674;9.018;2022-09-17T12:30:58;1.57;;;1.30;;
4555;SDS011;2290;48.674;9.018;2022-09-17T12:53:10;2.20;;;1.23;;
4555;SDS011;2290;48.674;9.018;2022-09-17T12:55:52;8.00;;;1.63;;
4555;SDS011;2290;48.674;9.018;2022-09-17T13:04:26;2.33;;;1.17;;
4555;SDS011;2290;48.674;9.018;2022-09-17T13:15:08;2.23;;;0.90;;
4555;SDS011;2290;48.674;9.018;2022-09-17T13:18:16;1.27;;;1.03;;
4555;SDS011;2290;48.674;9.018;2022-09-17T13:23:35;1.37;;;1.00;;
4555;SDS011;2290;48.674;9.018;2022-09-17T13:26:07;1.93;;;1.27;;
4555;SDS011;2290;48.674;9.018;2022-09-17T13:28:45;1.87;;;1.20;;
4555;SDS011;2290;48.674;9.018;2022-09-17T13:31:22;1.40;;;1.00;;
4555;SDS011;2290;48.674;9.018;2022-09-17T13:34:26;1.10;;;0.90;;
4555;SDS011;2290;48.674;9.018;2022-09-17T13:36:55;1.07;;;0.90;;
4555;SDS011;2290;48.674;9.018;2022-09-17T13:39:31;1.87;;;1.10;;
4555;SDS011;2290;48.674;9.018;2022-09-17T13:42:07;1.60;;;1.23;;
4555;SDS011;2290;48.674;9.018;2022-09-17T13:45:10;1.40;;;1.10;;
4555;SDS011;2290;48.674;9.018;2022-09-17T13:52:58;2.07;;;0.90;;
4555;SDS011;2290;48.674;9.018;2022-09-17T13:58:06;1.30;;;1.17;;
4555;SDS011;2290;48.674;9.018;2022-09-17T14:05:55;1.27;;;1.13;;
4555;SDS011;2290;48.674;9.018;2022-09-17T14:08:30;2.23;;;1.10;;
4555;SDS011;2290;48.674;9.018;2022-09-17T14:13:56;1.30;;;1.20;;
4555;SDS011;2290;48.674;9.018;2022-09-17T14:41:20;1.10;;;0.90;;
4555;SDS011;2290;48.674;9.018;2022-09-17T14:43:54;2.00;;;1.17;;
4555;SDS011;2290;48.674;9.018;2022-09-17T14:46:31;3.97;;;1.40;;
4555;SDS011;2290;48.674;9.018;2022-09-17T14:51:52;2.27;;;1.27;;
4555;SDS011;2290;48.674;9.018;2022-09-17T14:59:53;1.83;;;1.17;;
4555;SDS011;2290;48.674;9.018;2022-09-17T15:02:36;1.13;;;1.03;;
4555;SDS011;2290;48.674;9.018;2022-09-17T15:08:05;2.90;;;1.30;;
4555;SDS011;2290;48.674;9.018;2022-09-17T15:10:51;2.17;;;1.47;;
4555;SDS011;2290;48.674;9.018;2022-09-17T15:13:27;1.47;;;1.10;;
4555;SDS011;2290;48.674;9.018;2022-09-17T15:26:58;6.87;;;1.40;;
4555;SDS011;2290;48.674;9.018;2022-09-17T15:29:31;3.30;;;1.57;;
4555;SDS011;2290;48.674;9.018;2022-09-17T15:31:58;1.40;;;1.30;;
4555;SDS011;2290;48.674;9.018;2022-09-17T15:34:26;1.37;;;1.17;;
4555;SDS011;2290;48.674;9.018;2022-09-17T15:39:48;2.10;;;1.10;;
4555;SDS011;2290;48.674;9.018;2022-09-17T15:42:16;3.50;;;1.60;;
4555;SDS011;2290;48.674;9.018;2022-09-17T15:44:43;2.07;;;1.20;;
4555;SDS011;2290;48.674;9.018;2022-09-17T15:50:19;1.67;;;1.30;;
4555;SDS011;2290;48.674;9.018;2022-09-17T15:52:46;1.80;;;1.10;;
4555;SDS011;2290;48.674;9.018;2022-09-17T16:08:49;1.43;;;1.17;;
4555;SDS011;2290;48.674;9.018;2022-09-17T16:11:25;1.37;;;1.00;;
4555;SDS011;2290;48.674;9.018;2022-09-17T16:13:53;2.23;;;1.20;;
4555;SDS011;2290;48.674;9.018;2022-09-17T16:16:31;2.40;;;1.60;;
4555;SDS011;2290;48.674;9.018;2022-09-17T16:19:02;1.20;;;1.10;;
4555;SDS011;2290;48.674;9.018;2022-09-17T16:21:29;1.80;;;1.10;;
4555;SDS011;2290;48.674;9.018;2022-09-17T16:23:56;1.20;;;1.10;;
4555;SDS011;2290;48.674;9.018;2022-09-17T16:26:23;1.10;;;1.00;;
4555;SDS011;2290;48.674;9.018;2022-09-17T16:28:52;1.30;;;1.00;;
4555;SDS011;2290;48.674;9.018;2022-09-17T16:31:22;2.47;;;1.40;;
4555;SDS011;2290;48.674;9.018;2022-09-17T16:33:48;1.20;;;1.00;;
4555;SDS011;2290;48.674;9.018;2022-09-17T16:36:15;4.30;;;1.20;;
4555;SDS011;2290;48.674;9.018;2022-09-17T16:38:42;1.30;;;1.00;;
4555;SDS011;2290;48.674;9.018;2022-09-17T16:41:07;1.40;;;1.07;;
4555;SDS011;2290;48.674;9.018;2022-09-17T16:43:33;3.30;;;0.90;;
4555;SDS011;2290;48.674;9.018;2022-09-17T16:45:59;1.93;;;1.00;;
4555;SDS011;2290;48.674;9.018;2022-09-17T16:48:29;2.17;;;1.40;;
4555;SDS011;2290;48.674;9.018;2022-09-17T16:50:55;1.37;;;1.20;;
4555;SDS011;2290;48.674;9.018;2022-09-17T16:53:21;1.57;;;1.20;;
4555;SDS011;2290;48.674;9.018;2022-09-17T16:55:47;2.03;;;1.20;;
4555;SDS011;2290;48.674;9.018;2022-09-17T16:58:14;2.50;;;1.10;;
4555;SDS011;2290;48.674;9.018;2022-09-17T17:00:43;1.50;;;1.10;;
4555;SDS011;2290;48.674;9.018;2022-09-17T17:03:10;3.33;;;1.43;;
4555;SDS011;2290;48.674;9.018;2022-09-17T17:05:37;1.70;;;1.07;;
4555;SDS011;2290;48.674;9.018;2022-09-17T17:08:03;1.70;;;1.07;;
4555;SDS011;2290;48.674;9.018;2022-09-17T17:10:30;1.60;;;1.00;;
4555;SDS011;2290;48.674;9.018;2022-09-17T17:12:55;3.43;;;1.20;;
4555;SDS011;2290;48.674;9.018;2022-09-17T17:15:21;3.20;;;1.43;;
4555;SDS011;2290;48.674;9.018;2022-09-17T17:17:47;1.60;;;1.20;;
4555;SDS011;2290;48.674;9.018;2022-09-17T17:20:13;1.80;;;1.30;;
4555;SDS011;2290;48.674;9.018;2022-09-17T17:22:40;1.40;;;1.20;;
4555;SDS011;2290;48.674;9.018;2022-09-17T17:25:08;2.53;;;1.33;;
4555;SDS011;2290;48.674;9.018;2022-09-17T17:27:34;1.60;;;1.13;;
4555;SDS011;2290;48.674;9.018;2022-09-17T17:30:03;1.20;;;1.10;;
4555;SDS011;2290;48.674;9.018;2022-09-17T17:32:34;2.10;;;1.37;;
4555;SDS011;2290;48.674;9.018;2022-09-17T17:35:01;2.40;;;1.80;;
4555;SDS011;2290;48.674;9.018;2022-09-17T17:37:27;1.00;;;0.90;;
4555;SDS011;2290;48.674;9.018;2022-09-17T17:39:53;1.30;;;1.20;;
4555;SDS011;2290;48.674;9.018;2022-09-17T17:42:19;2.40;;;1.40;;
4555;SDS011;2290;48.674;9.018;2022-09-17T17:44:46;1.53;;;1.43;;
4555;SDS011;2290;48.674;9.018;2022-09-17T17:47:12;2.43;;;1.13;;
4555;SDS011;2290;48.674;9.018;2022-09-17T17:49:38;1.50;;;1.00;;
4555;SDS011;2290;48.674;9.018;2022-09-17T17:52:03;1.30;;;1.10;;
4555;SDS011;2290;48.674;9.018;2022-09-17T17:54:29;1.23;;;1.00;;
4555;SDS011;2290;48.674;9.018;2022-09-17T17:56:55;1.40;;;1.23;;
4555;SDS011;2290;48.674;9.018;2022-09-17T17:59:21;1.53;;;1.17;;
4555;SDS011;2290;48.674;9.018;2022-09-17T18:01:47;3.10;;;1.77;;
4555;SDS011;2290;48.674;9.018;2022-09-17T18:04:12;4.13;;;1.37;;
4555;SDS011;2290;48.674;9.018;2022-09-17T18:06:38;1.87;;;1.10;;
4555;SDS011;2290;48.674;9.018;2022-09-17T18:09:03;1.90;;;1.17;;
4555;SDS011;2290;48.674;9.018;2022-09-17T18:11:30;1.33;;;1.20;;
4555;SDS011;2290;48.674;9.018;2022-09-17T18:13:56;1.30;;;1.10;;
4555;SDS011;2290;48.674;9.018;2022-09-17T18:16:24;1.50;;;1.40;;
4555;SDS011;2290;48.674;9.018;2022-09-17T18:18:50;1.30;;;1.20;;
4555;SDS011;2290;48.674;9.018;2022-09-17T18:21:16;1.40;;;1.10;;
4555;SDS011;2290;48.674;9.018;2022-09-17T18:23:45;1.87;;;1.30;;
4555;SDS011;2290;48.674;9.018;2022-09-17T18:26:20;2.00;;;1.43;;
4555;SDS011;2290;48.674;9.018;2022-09-17T18:28:47;1.70;;;1.30;;
4555;SDS011;2290;48.674;9.018;2022-09-17T18:31:21;3.00;;;1.30;;
4555;SDS011;2290;48.674;9.018;2022-09-17T18:33:48;1.20;;;0.90;;
4555;SDS011;2290;48.674;9.018;2022-09-17T18:36:18;2.83;;;1.10;;
4555;SDS011;2290;48.674;9.018;2022-09-17T18:38:43;2.67;;;0.90;;
4555;SDS011;2290;48.674;9.018;2022-09-17T18:41:10;2.60;;;1.20;;
4555;SDS011;2290;48.674;9.018;2022-09-17T18:43:36;2.60;;;1.00;;
4555;SDS011;2290;48.674;9.018;2022-09-17T18:46:02;1.57;;;0.90;;
4555;SDS011;2290;48.674;9.018;2022-09-17T18:48:29;1.33;;;1.20;;
4555;SDS011;2290;48.674;9.018;2022-09-17T18:50:55;1.97;;;1.00;;
4555;SDS011;2290;48.674;9.018;2022-09-17T18:53:26;1.10;;;0.83;;
4555;SDS011;2290;48.674;9.018;2022-09-17T18:55:53;1.00;;;0.80;;
4555;SDS011;2290;48.674;9.018;2022-09-17T18:58:21;1.10;;;0.90;;
4555;SDS011;2290;48.674;9.018;2022-09-17T19:00:47;1.33;;;1.00;;
4555;SDS011;2290;48.674;9.018;2022-09-17T19:03:12;1.10;;;1.00;;
4555;SDS011;2290;48.674;9.018;2022-09-17T19:05:38;1.27;;;1.17;;
4555;SDS011;2290;48.674;9.018;2022-09-17T19:08:04;1.20;;;0.90;;
4555;SDS011;2290;48.674;9.018;2022-09-17T19:10:30;1.67;;;0.70;;
4555;SDS011;2290;48.674;9.018;2022-09-17T19:12:56;1.77;;;1.20;;
4555;SDS011;2290;48.674;9.018;2022-09-17T19:15:22;1.20;;;0.90;;
4555;SDS011;2290;48.674;9.018;2022-09-17T19:17:48;1.00;;;0.83;;
4555;SDS011;2290;48.674;9.018;2022-09-17T19:20:13;3.10;;;1.00;;
4555;SDS011;2290;48.674;9.018;2022-09-17T19:22:39;1.50;;;0.90;;